KFVE

Northern Aroostook Regional Airport

Frenchville, Maine, USA
METAR KFVE 191453Z AUTO VRB05KT 10SM CLR 21/12 A3014 RMK AO2 SLP203 T02060117 51008
Observed Flight Rules
Aug-19 @ 14:53 UTC (45 minutes ago) Visual Flight Rules
Wind Visibility Clouds
Variable at 5 knots 10 miles
  • Clear skies
Temperatures Readings
Current 21°C / 70°F
Dewpoint 12°C / 54°F
Humidity 57%
Altimeter 30.14" Hg
Pressure 1020.3 hPa
Elevation 301
METAR KFVE 191453Z AUTO VRB05KT 10SM CLR 21/12 A3014 RMK AO2 SLP203 T02060117 51008
Observed Flight Rules
Aug-19 @ 14:53 UTC
(45 minutes ago)
VFR
Wind Visibility
Variable at 5 knots 10 miles
Clouds
  • Clear skies
Temperature Dewpoint
21°C / 70°F 12°C / 54°F
Humidity Altimeter Pressure
57% 30.14" Hg 1020.3 hPa